WetterOnline ( http://www.wetteronline.de )

Wetter aktuell Bad Kissingen

Aktuelles Wetter: Bad Kissingen (266m)

6-stündlich | Neueste Meldungen
Ortszeit Temperatur Wetter
Sa, 19.01. 19:00 -2.4° C bedeckt
Sa, 19.01. 13:00 -1.8° C wolkig
Sa, 19.01. 7:00 -6.6° C bedeckt
Sa, 19.01. 1:00 -4.7° C bedeckt
Fr, 18.01. 19:00 -2.1° C wolkig
Fr, 18.01. 13:00 1.9° C wolkenlos
Fr, 18.01. 7:00 -0.0° C bewölkt
Fr, 18.01. 1:00 0.3° C Schneegriesel
Ortszeit Temperatur Wetter
Sa, 19.01. 23:00 -5.1° C leicht bewölkt
Sa, 19.01. 22:40 -4.9° C leicht bewölkt
Sa, 19.01. 22:30 -4.7° C leicht bewölkt
Sa, 19.01. 22:20 -4.7° C leicht bewölkt
Sa, 19.01. 22:10 -4.5° C fast wolkenlos
Sa, 19.01. 22:00 -4.3° C wolkenlos
Sa, 19.01. 21:50 -4.3° C wolkenlos
Sa, 19.01. 21:30 -4.0° C fast wolkenlos
Sa, 19.01. 21:00 -3.6° C wolkenlos
Sa, 19.01. 20:30 -3.0° C wolkenlos
Sa, 19.01. 20:00 -3.4° C leicht bewölkt
Ortszeit Relative Feuchte Sichtweite
Sa, 19.01. 19:00 62% 55 km
Sa, 19.01. 13:00 69% 55 km
Sa, 19.01. 7:00 92% 40 km
Sa, 19.01. 1:00 88% 45 km
Fr, 18.01. 19:00 75% 60 km
Fr, 18.01. 13:00 54% 65 km
Fr, 18.01. 7:00 80% 50 km
Fr, 18.01. 1:00 90% 23 km
Ortszeit Relative Feuchte Sichtweite
Sa, 19.01. 23:00 75% 40 km
Sa, 19.01. 22:40 76% -
Sa, 19.01. 22:30 73% 40 km
Sa, 19.01. 22:20 73% -
Sa, 19.01. 22:10 72% -
Sa, 19.01. 22:00 71% 40 km
Sa, 19.01. 21:50 71% -
Sa, 19.01. 21:30 70% 50 km
Sa, 19.01. 21:00 66% 35 km
Sa, 19.01. 20:30 64% 50 km
Sa, 19.01. 20:00 66% 45 km
Ortszeit Niederschlagsmenge Niederschlagsart
Sa, 19.01. 19:00 0.0 l/m2 in 12 Std. -
Sa, 19.01. 13:00 0.0 l/m2 in 6 Std. -
Sa, 19.01. 7:00 0.0 l/m2 in 12 Std. -
Sa, 19.01. 1:00 0.0 l/m2 in 6 Std. -
Fr, 18.01. 19:00 0.1 l/m2 in 12 Std. -
Fr, 18.01. 13:00 0.1 l/m2 in 6 Std. Schnee
Fr, 18.01. 7:00 0.1 l/m2 in 12 Std. Schnee, Sprühregen
Fr, 18.01. 1:00 0.1 l/m2 in 6 Std. Schnee, Regen
Ortszeit Niederschlagsmenge Niederschlagsart
Sa, 19.01. 23:00 0.0 l/m2 in 1 Std. -
Sa, 19.01. 22:40 keine Meldung -
Sa, 19.01. 22:30 0.0 l/m2 in 1 Std. -
Sa, 19.01. 22:20 keine Meldung -
Sa, 19.01. 22:10 keine Meldung -
Sa, 19.01. 22:00 0.0 l/m2 in 1 Std. -
Sa, 19.01. 21:50 keine Meldung -
Sa, 19.01. 21:30 0.0 l/m2 in 1 Std. -
Sa, 19.01. 21:00 0.0 l/m2 in 1 Std. -
Sa, 19.01. 20:30 0.0 l/m2 in 1 Std. -
Sa, 19.01. 20:00 0.0 l/m2 in 1 Std. -
Ortszeit Stärke Spitze Richtung
km/h Bft. km/h Grad Sektor
Sa, 19.01. 19:00 7 2 18 50° NO
Sa, 19.01. 13:00 7 2 11 10° N
Sa, 19.01. 7:00 6 1 11 10° N
Sa, 19.01. 1:00 7 2 11 20° N
Fr, 18.01. 19:00 6 1 15 20° N
Fr, 18.01. 13:00 4 1 22 130° SO
Fr, 18.01. 7:00 14 3 32 260° W
Fr, 18.01. 1:00 18 3 47 230° SW
Ortszeit Stärke Spitze Richtung
km/h Bft. km/h Grad Sektor
Sa, 19.01. 23:00 7 2 11 330° NW
Sa, 19.01. 22:40 7 2 - 340° N
Sa, 19.01. 22:30 7 2 9 340° N
Sa, 19.01. 22:20 7 2 - 340° N
Sa, 19.01. 22:10 7 2 - 340° N
Sa, 19.01. 22:00 7 2 9 350° N
Sa, 19.01. 21:50 7 2 - 350° N
Sa, 19.01. 21:30 7 2 11 350° N
Sa, 19.01. 21:00 7 2 11 350° N
Sa, 19.01. 20:30 6 1 9 20° N
Sa, 19.01. 20:00 7 2 14 350° N
Ortszeit Untergrenze Bedeckung Gattung
total tief tief mittel hoch
Sa, 19.01. 19:00 4200 m 8/8 8/8 - - -
Sa, 19.01. 13:00 4500 m 8/8 8/8 - - -
Sa, 19.01. 7:00 3900 m 8/8 8/8 - - -
Sa, 19.01. 1:00 4800 m 8/8 8/8 - - -
Fr, 18.01. 19:00 8700 m 8/8 0/8 - - -
Fr, 18.01. 13:00 - 0/8 0/8 - - -
Fr, 18.01. 7:00 810 m 7/8 7/8 - - -
Fr, 18.01. 1:00 180 m 8/8 8/8 - - -
Ortszeit Bedeckungsgrad in Achtel und Wolkenuntergrenze
Sa, 19.01. 23:00 2(4800m)
Sa, 19.01. 22:40 2(4800m)
Sa, 19.01. 22:30 2(4800m)
Sa, 19.01. 22:20 2(4800m)
Sa, 19.01. 22:10 1(4800m)
Sa, 19.01. 22:00 keine Wolken
Sa, 19.01. 21:50 keine Wolken
Sa, 19.01. 21:30 1(4500m)
Sa, 19.01. 21:00 2(4500m)
Sa, 19.01. 20:30 keine Wolken
Sa, 19.01. 20:00 2(3900m)
Ortszeit Luftdruck NN (hPa) Tendenz (hPa in 3 Std.)
Sa, 19.01. 19:00 1017 - 0,6
Sa, 19.01. 13:00 1019 - 1,3
Sa, 19.01. 7:00 1021 - 0,6
Sa, 19.01. 1:00 1022 - 0,5
Fr, 18.01. 19:00 1022 + 0,5
Fr, 18.01. 13:00 1021 + 0,9
Fr, 18.01. 7:00 1017 + 2,8
Fr, 18.01. 1:00 1012 + 2,0
Ortszeit Luftdruck NN (hPa) Tendenz (hPa in 3 Std.)
Sa, 19.01. 23:00 1017 + 0,1
Sa, 19.01. 22:40 1017 keine Meldung
Sa, 19.01. 22:30 1017 + 0,1
Sa, 19.01. 22:20 1017 keine Meldung
Sa, 19.01. 22:10 1017 keine Meldung
Sa, 19.01. 22:00 1017 0,0
Sa, 19.01. 21:50 1017 keine Meldung
Sa, 19.01. 21:30 1017 0,0
Sa, 19.01. 21:00 1017 0,0
Sa, 19.01. 20:30 1017 - 0,1
Sa, 19.01. 20:00 1017 - 0,2
Ortszeit Schneehöhe (cm)
Sa, 19.01. 19:00 2
Sa, 19.01. 13:00 2
Sa, 19.01. 7:00 2
Sa, 19.01. 1:00 0
Fr, 18.01. 19:00 0
Fr, 18.01. 13:00 -
Fr, 18.01. 7:00 1
Fr, 18.01. 1:00 -
Ortszeit Schneehöhe (cm)
Sa, 19.01. 23:00 2
Sa, 19.01. 22:40 2
Sa, 19.01. 22:30 2
Sa, 19.01. 22:20 2
Sa, 19.01. 22:10 2
Sa, 19.01. 22:00 2
Sa, 19.01. 21:50 2
Sa, 19.01. 21:30 2
Sa, 19.01. 21:00 2
Sa, 19.01. 20:30 2
Sa, 19.01. 20:00 2
Link zu dieser Seite / Seite empfehlen

Das Wetter in ...